Time;durP1;ratioP1;P1;durP2;ratioP2;P2;SDS_P1;SDS_P2;PMS_P1;PMS_P2;Temp;Humidity;BMP_temperature;BMP_pressure;BME280_temperature;BME280_humidity;BME280_pressure;Samples;Min_cycle;Max_cycle;Signal;HPM_P1;HPM_P2
2023/04/07 00:00:38;;;;;;;15.35;6.30;;;10.20;99.90;;;;;;5120755;28;20028;-61
2023/04/07 00:03:06;;;;;;;15.07;6.80;;;10.10;99.90;;;;;;5119860;28;20195;-62
2023/04/07 00:05:32;;;;;;;13.00;7.22;;;10.20;99.90;;;;;;5121044;28;20046;-62
2023/04/07 00:07:58;;;;;;;16.00;7.30;;;10.20;99.90;;;;;;5120032;28;20127;-60
2023/04/07 00:10:24;;;;;;;16.27;7.10;;;10.20;99.90;;;;;;5120794;28;20085;-60
2023/04/07 00:12:50;;;;;;;13.60;6.90;;;10.20;99.90;;;;;;5120499;28;20392;-61
2023/04/07 00:15:16;;;;;;;14.45;7.95;;;10.10;99.90;;;;;;5120549;27;20038;-61
2023/04/07 00:17:42;;;;;;;20.38;8.40;;;10.10;99.90;;;;;;5119576;28;20118;-60
2023/04/07 00:20:08;;;;;;;17.63;8.13;;;10.00;99.90;;;;;;5120408;28;20028;-62
2023/04/07 00:22:34;;;;;;;18.13;10.27;;;10.00;99.90;;;;;;5120317;28;20038;-61
2023/04/07 00:25:00;;;;;;;17.83;10.13;;;10.10;99.90;;;;;;5120294;28;20066;-61
2023/04/07 00:27:26;;;;;;;23.88;10.95;;;10.00;99.90;;;;;;5120579;28;20084;-61
2023/04/07 00:29:54;;;;;;;28.50;11.10;;;10.00;99.90;;;;;;5119401;28;20028;-62
2023/04/07 00:32:21;;;;;;;22.52;11.77;;;10.00;99.90;;;;;;5120416;27;20052;-62
2023/04/07 00:34:46;;;;;;;24.13;10.80;;;9.90;99.90;;;;;;5119414;28;20034;-61
2023/04/07 00:37:12;;;;;;;19.60;11.25;;;9.90;99.90;;;;;;5102228;28;20023;-61
2023/04/07 00:39:38;;;;;;;20.90;11.15;;;9.90;99.90;;;;;;5120222;28;20115;-62
2023/04/07 00:42:06;;;;;;;16.85;10.38;;;9.90;99.90;;;;;;5119089;28;20124;-62
2023/04/07 00:44:32;;;;;;;19.52;10.75;;;9.90;99.90;;;;;;5119168;28;20039;-62
2023/04/07 00:46:58;;;;;;;23.02;10.43;;;10.00;99.90;;;;;;5119774;28;20060;-61
2023/04/07 00:49:27;;;;;;;19.85;10.52;;;10.10;99.90;;;;;;5119721;28;20046;-62
2023/04/07 00:51:54;;;;;;;19.33;10.32;;;10.10;99.90;;;;;;5118946;28;20448;-62
2023/04/07 00:54:22;;;;;;;16.55;9.10;;;10.00;99.90;;;;;;5119662;28;20012;-62
2023/04/07 00:56:49;;;;;;;17.70;10.23;;;10.10;99.90;;;;;;5119728;28;20027;-61
2023/04/07 00:59:15;;;;;;;19.33;9.75;;;10.00;99.90;;;;;;5118891;28;20031;-61
2023/04/07 01:01:58;;;;;;;19.98;10.07;;;10.10;99.90;;;;;;5102111;28;20384;-62
2023/04/07 01:04:48;;;;;;;16.55;9.40;;;10.30;99.90;;;;;;5118783;28;20028;-62
2023/04/07 01:07:22;;;;;;;17.52;9.35;;;10.20;99.90;;;;;;5118809;28;20096;-62
2023/04/07 01:10:05;;;;;;;14.70;9.45;;;10.20;99.90;;;;;;5119450;28;20169;-61
2023/04/07 01:12:55;;;;;;;16.60;8.90;;;10.30;99.90;;;;;;5119532;28;20446;-61
2023/04/07 01:15:26;;;;;;;20.05;9.77;;;10.20;99.90;;;;;;5118607;28;20043;-61
2023/04/07 01:18:18;;;;;;;18.17;10.98;;;10.30;99.90;;;;;;5118548;28;20072;-61
2023/04/07 01:20:48;;;;;;;22.73;10.85;;;10.20;99.90;;;;;;5118430;28;20350;-62
2023/04/07 01:23:24;;;;;;;19.13;10.43;;;10.30;99.90;;;;;;5119158;28;20032;-62
2023/04/07 01:26:09;;;;;;;21.63;10.93;;;10.20;99.90;;;;;;5119178;28;20080;-61
2023/04/07 01:29:03;;;;;;;16.77;10.95;;;10.20;99.90;;;;;;5118146;28;20025;-61
2023/04/07 01:31:29;;;;;;;17.33;11.65;;;10.10;99.90;;;;;;5119277;28;20048;-61
2023/04/07 01:33:59;;;;;;;25.17;12.13;;;10.30;99.90;;;;;;5118882;28;20103;-61
2023/04/07 01:36:27;;;;;;;21.27;12.20;;;10.20;99.90;;;;;;5118874;28;20036;-61
2023/04/07 01:38:54;;;;;;;21.38;12.23;;;10.10;99.90;;;;;;5119103;28;20415;-62
2023/04/07 01:41:22;;;;;;;22.20;12.30;;;10.00;99.90;;;;;;5118647;28;20071;-62
2023/04/07 01:43:48;;;;;;;20.27;12.48;;;9.80;99.90;;;;;;5118771;28;20301;-63
2023/04/07 01:46:15;;;;;;;23.73;12.07;;;9.70;99.90;;;;;;5118978;28;20294;-61
2023/04/07 01:48:41;;;;;;;19.88;12.63;;;9.80;99.90;;;;;;5117777;28;20034;-61
2023/04/07 01:51:10;;;;;;;25.40;13.23;;;9.80;99.90;;;;;;5118146;28;20027;-62
2023/04/07 01:53:38;;;;;;;24.38;13.80;;;9.80;99.90;;;;;;5117907;28;20034;-61
2023/04/07 01:56:05;;;;;;;24.48;13.43;;;9.70;99.90;;;;;;5101302;28;20059;-62
2023/04/07 01:58:32;;;;;;;27.63;15.00;;;9.60;99.90;;;;;;5101304;28;20027;-61
2023/04/07 02:00:59;;;;;;;27.80;14.68;;;9.70;99.90;;;;;;5117669;28;20108;-62
2023/04/07 02:03:55;;;;;;;28.00;14.02;;;9.90;99.90;;;;;;5117581;28;20024;-62
2023/04/07 02:06:28;;;;;;;24.45;14.38;;;9.90;99.90;;;;;;5117163;28;20040;-61
2023/04/07 02:08:58;;;;;;;25.38;14.13;;;9.90;99.90;;;;;;5118223;28;20128;-61
2023/04/07 02:11:26;;;;;;;27.67;14.48;;;9.90;99.90;;;;;;5118561;28;20027;-61
2023/04/07 02:13:56;;;;;;;28.83;15.18;;;9.90;99.90;;;;;;5117421;28;20024;-64
2023/04/07 02:16:23;;;;;;;28.40;15.85;;;9.80;99.90;;;;;;5118892;28;20126;-60
2023/04/07 02:18:52;;;;;;;29.52;15.35;;;9.80;99.90;;;;;;5117231;28;20043;-62
2023/04/07 02:21:20;;;;;;;30.23;15.68;;;9.90;99.90;;;;;;5118153;28;20323;-61
2023/04/07 02:23:46;;;;;;;31.77;16.23;;;9.90;99.90;;;;;;5117307;28;20045;-61
2023/04/07 02:26:12;;;;;;;33.47;15.93;;;9.90;99.90;;;;;;5117195;28;20027;-61
2023/04/07 02:28:38;;;;;;;31.73;16.60;;;9.80;99.90;;;;;;5117772;28;20087;-61
2023/04/07 02:31:04;;;;;;;32.85;17.10;;;9.80;99.90;;;;;;5117758;28;20031;-61
2023/04/07 02:33:31;;;;;;;36.60;17.25;;;9.70;99.90;;;;;;5116989;28;20031;-62
2023/04/07 02:35:57;;;;;;;30.10;16.77;;;9.70;99.90;;;;;;5117807;28;20404;-61
2023/04/07 02:38:22;;;;;;;33.67;17.50;;;9.70;99.90;;;;;;5117676;28;20396;-61
2023/04/07 02:40:48;;;;;;;32.17;17.00;;;9.70;99.90;;;;;;5118114;28;20080;-62
2023/04/07 02:43:15;;;;;;;30.40;17.25;;;9.60;99.90;;;;;;5117247;28;20049;-61
2023/04/07 02:45:42;;;;;;;37.97;18.83;;;9.60;99.90;;;;;;5118199;28;20046;-61
2023/04/07 02:48:08;;;;;;;37.53;18.63;;;9.70;99.90;;;;;;5117523;28;20088;-62
2023/04/07 02:50:35;;;;;;;37.13;19.05;;;9.60;99.90;;;;;;5117497;28;20020;-61
2023/04/07 02:53:00;;;;;;;43.13;18.92;;;9.60;99.90;;;;;;5117517;28;20350;-61
2023/04/07 02:55:26;;;;;;;41.08;20.00;;;9.60;99.90;;;;;;5116880;28;20042;-61
2023/04/07 02:57:52;;;;;;;35.75;18.98;;;9.60;99.90;;;;;;5116747;28;20027;-61
2023/04/07 03:00:33;;;;;;;38.63;19.38;;;9.70;99.90;;;;;;5117044;28;20031;-62
2023/04/07 03:03:05;;;;;;;39.08;19.10;;;9.60;99.90;;;;;;5115895;28;20023;-61
2023/04/07 03:05:35;;;;;;;40.50;20.00;;;9.60;99.90;;;;;;5100217;28;20392;-61
2023/04/07 03:08:02;;;;;;;35.90;19.50;;;9.70;99.90;;;;;;5116590;28;20055;-61
2023/04/07 03:10:28;;;;;;;37.38;19.00;;;9.60;99.90;;;;;;5116466;28;20028;-61
2023/04/07 03:12:54;;;;;;;38.72;19.58;;;9.50;99.90;;;;;;5117316;28;20039;-61
2023/04/07 03:15:20;;;;;;;38.63;19.63;;;9.40;99.90;;;;;;5116541;28;20423;-61
2023/04/07 03:17:47;;;;;;;37.95;19.15;;;9.50;99.90;;;;;;5099676;28;20038;-60
2023/04/07 03:20:16;;;;;;;38.05;18.83;;;9.60;99.90;;;;;;5116515;28;20427;-60
2023/04/07 03:22:43;;;;;;;38.47;19.42;;;9.50;99.90;;;;;;5117453;28;20043;-61
2023/04/07 03:25:15;;;;;;;40.05;19.17;;;9.50;99.90;;;;;;5116429;28;20404;-60
2023/04/07 03:27:41;;;;;;;36.30;18.92;;;9.50;99.90;;;;;;5099494;28;20400;-61
2023/04/07 03:30:10;;;;;;;35.53;18.25;;;9.50;99.90;;;;;;5099732;28;20301;-61
2023/04/07 03:32:37;;;;;;;38.67;17.25;;;9.40;99.90;;;;;;5099767;28;20043;-61
2023/04/07 03:35:03;;;;;;;39.47;17.30;;;9.30;99.90;;;;;;5117165;28;20027;-61
2023/04/07 03:37:29;;;;;;;31.60;16.38;;;9.30;99.90;;;;;;5117803;28;20380;-61
2023/04/07 03:39:55;;;;;;;37.28;17.35;;;9.40;99.90;;;;;;5117086;28;20446;-61
2023/04/07 03:42:26;;;;;;;34.33;16.23;;;9.50;99.90;;;;;;5117315;28;20055;-61
2023/04/07 03:44:58;;;;;;;36.13;15.05;;;9.40;99.90;;;;;;5116295;28;20031;-61
2023/04/07 03:47:24;;;;;;;28.67;13.70;;;9.30;99.90;;;;;;5116980;28;20042;-61
2023/04/07 03:49:55;;;;;;;29.52;14.00;;;9.40;99.90;;;;;;5116238;28;20027;-61
2023/04/07 03:52:21;;;;;;;31.95;14.48;;;9.40;99.90;;;;;;5116238;28;20027;-61
2023/04/07 03:54:51;;;;;;;23.70;12.88;;;9.40;99.90;;;;;;5116202;28;20058;-61
2023/04/07 03:57:20;;;;;;;25.50;12.27;;;9.40;99.90;;;;;;5116423;28;20027;-61
2023/04/07 03:59:50;;;;;;;27.00;11.95;;;9.50;99.90;;;;;;5099362;28;20397;-61
2023/04/07 04:02:17;;;;;;;23.88;11.27;;;9.60;99.90;;;;;;5116015;28;20032;-61
2023/04/07 04:04:45;;;;;;;21.77;10.27;;;9.70;99.90;;;;;;5116118;28;20054;-61
2023/04/07 04:07:12;;;;;;;17.38;9.05;;;9.70;99.90;;;;;;5116111;28;20040;-61
2023/04/07 04:09:49;;;;;;;24.83;9.88;;;9.80;99.90;;;;;;5115948;28;20408;-61
2023/04/07 04:12:17;;;;;;;16.27;8.60;;;9.80;99.90;;;;;;5115935;28;20449;-61
2023/04/07 04:14:52;;;;;;;19.20;8.45;;;9.80;99.90;;;;;;5118488;28;20038;-61
2023/04/07 04:17:19;;;;;;;13.80;8.10;;;9.70;99.90;;;;;;5119720;28;20384;-61
2023/04/07 04:19:46;;;;;;;20.33;8.65;;;9.60;99.90;;;;;;5119586;28;20039;-61
2023/04/07 04:22:20;;;;;;;16.88;7.90;;;9.50;99.90;;;;;;5119813;28;20412;-62
2023/04/07 04:24:53;;;;;;;14.73;6.95;;;9.30;99.90;;;;;;5119555;28;20361;-61
2023/04/07 04:27:20;;;;;;;18.75;7.63;;;9.40;99.90;;;;;;5119521;28;20035;-61
2023/04/07 04:29:52;;;;;;;18.48;8.10;;;9.40;99.90;;;;;;5087140;28;20042;-61
2023/04/07 04:32:27;;;;;;;18.83;7.60;;;9.30;99.90;;;;;;5103923;28;20400;-62
2023/04/07 04:34:53;;;;;;;14.23;7.53;;;9.30;99.90;;;;;;5120201;28;20051;-62
2023/04/07 04:37:19;;;;;;;13.73;6.68;;;9.20;99.90;;;;;;5120351;28;20032;-62
2023/04/07 04:39:45;;;;;;;15.15;6.97;;;9.20;99.90;;;;;;5119236;28;20020;-62
2023/04/07 04:42:15;;;;;;;21.40;7.90;;;9.30;99.90;;;;;;5119125;28;20059;-62
2023/04/07 04:44:41;;;;;;;16.98;8.82;;;9.30;99.90;;;;;;5102536;28;20308;-62
2023/04/07 04:47:08;;;;;;;20.60;9.75;;;9.30;99.90;;;;;;5119205;28;20035;-62
2023/04/07 04:49:36;;;;;;;16.65;10.02;;;9.30;99.90;;;;;;5119081;28;20059;-62
2023/04/07 04:52:03;;;;;;;21.88;11.48;;;9.30;99.90;;;;;;5119928;28;20024;-62
2023/04/07 04:54:35;;;;;;;23.02;10.93;;;9.30;99.90;;;;;;5119318;28;20412;-62
2023/04/07 04:57:01;;;;;;;17.85;10.68;;;9.20;99.90;;;;;;5118946;28;20108;-61
2023/04/07 04:59:27;;;;;;;20.45;10.90;;;9.40;99.90;;;;;;5118984;28;20069;-63
2023/04/07 05:02:02;;;;;;;21.60;10.95;;;9.40;99.90;;;;;;5118844;28;20032;-61
2023/04/07 05:04:27;;;;;;;23.00;10.75;;;9.30;99.90;;;;;;5118768;28;20042;-62
2023/04/07 05:07:00;;;;;;;;;;;9.20;99.90;;;;;;5120323;28;20046;-62
2023/04/07 05:09:28;;;;;;;19.75;10.70;;;9.10;99.90;;;;;;5101960;28;19916;-62
2023/04/07 05:11:54;;;;;;;24.63;11.70;;;9.10;99.90;;;;;;5118539;28;20419;-62
2023/04/07 05:14:21;;;;;;;21.52;11.70;;;9.10;99.90;;;;;;5118372;28;20308;-62
2023/04/07 05:16:53;;;;;;;22.10;11.90;;;9.10;99.90;;;;;;5118608;28;20059;-61
2023/04/07 05:19:22;;;;;;;22.65;12.65;;;9.20;99.90;;;;;;5118782;28;20412;-62
2023/04/07 05:21:51;;;;;;;24.90;11.88;;;9.30;99.90;;;;;;5119186;28;20039;-63
2023/04/07 05:24:20;;;;;;;24.02;12.38;;;9.20;99.90;;;;;;5119063;28;20078;-62
2023/04/07 05:26:50;;;;;;;23.52;11.98;;;9.30;99.90;;;;;;5117265;28;20058;-61
2023/04/07 05:29:17;;;;;;;24.08;12.27;;;9.40;99.90;;;;;;5118929;28;20027;-61
2023/04/07 05:31:43;;;;;;;23.40;12.93;;;9.40;99.90;;;;;;5119347;28;20103;-62
2023/04/07 05:34:12;;;;;;;23.20;12.13;;;9.50;99.90;;;;;;5101657;28;20024;-62
2023/04/07 05:36:44;;;;;;;27.60;13.15;;;9.50;99.90;;;;;;5102138;28;20435;-62
2023/04/07 05:39:10;;;;;;;23.58;12.25;;;9.50;99.90;;;;;;5118909;28;20256;-62
2023/04/07 05:41:36;;;;;;;22.15;11.82;;;9.50;99.90;;;;;;5117904;28;20055;-62
2023/04/07 05:44:02;;;;;;;20.92;12.38;;;9.50;99.90;;;;;;5118035;28;20115;-62
2023/04/07 05:46:30;;;;;;;25.88;11.85;;;9.50;99.90;;;;;;5102055;28;20513;-62
2023/04/07 05:48:57;;;;;;;18.92;11.23;;;9.60;99.90;;;;;;5118701;28;20116;-61
2023/04/07 05:51:25;;;;;;;21.38;11.48;;;9.70;99.90;;;;;;5117934;28;20035;-61
2023/04/07 05:53:54;;;;;;;23.33;12.23;;;9.80;99.90;;;;;;5101385;28;20024;-61
2023/04/07 05:56:22;;;;;;;24.65;11.95;;;9.90;99.90;;;;;;5118315;28;20058;-62
2023/04/07 05:58:48;;;;;;;26.20;12.80;;;10.00;99.90;;;;;;5100630;28;20028;-61
2023/04/07 06:01:15;;;;;;;22.08;11.52;;;10.00;99.90;;;;;;5101344;28;20028;-61
2023/04/07 06:03:41;;;;;;;24.98;12.18;;;10.10;99.90;;;;;;5117512;28;20400;-61
2023/04/07 06:06:17;;;;;;;22.35;11.70;;;10.20;99.90;;;;;;5117662;28;20088;-61
2023/04/07 06:08:44;;;;;;;23.05;13.40;;;10.30;99.90;;;;;;5117367;28;20428;-62
2023/04/07 06:11:11;;;;;;;20.85;11.32;;;10.40;99.90;;;;;;5100608;28;20047;-61
2023/04/07 06:13:37;;;;;;;21.52;11.63;;;10.50;99.90;;;;;;5118127;27;20085;-62
2023/04/07 06:16:05;;;;;;;22.98;11.15;;;10.50;99.90;;;;;;5117419;28;20042;-61
2023/04/07 06:18:31;;;;;;;18.77;11.05;;;10.60;99.90;;;;;;5118108;27;20019;-62
2023/04/07 06:20:57;;;;;;;19.83;11.02;;;10.50;99.90;;;;;;5117193;28;20031;-62
2023/04/07 06:23:25;;;;;;;17.48;10.73;;;10.40;99.90;;;;;;5100453;28;20032;-62
2023/04/07 06:25:52;;;;;;;22.13;12.75;;;10.40;99.90;;;;;;5117247;28;20035;-63
2023/04/07 06:28:18;;;;;;;23.10;12.75;;;10.40;99.90;;;;;;5118190;28;20346;-63
2023/04/07 06:30:44;;;;;;;22.83;11.25;;;10.50;99.90;;;;;;5117786;28;20036;-62
2023/04/07 06:33:12;;;;;;;17.42;10.98;;;10.50;99.90;;;;;;5117039;28;20028;-62
2023/04/07 06:35:40;;;;;;;16.67;10.15;;;10.50;99.90;;;;;;5100184;28;20063;-62
2023/04/07 06:38:07;;;;;;;14.23;9.93;;;10.60;99.90;;;;;;5116787;28;20031;-62
2023/04/07 06:40:33;;;;;;;16.17;10.25;;;10.70;99.90;;;;;;5117190;28;20028;-61
2023/04/07 06:42:59;;;;;;;15.75;9.93;;;10.90;99.90;;;;;;5116859;28;20056;-62
2023/04/07 06:45:37;;;;;;;16.05;9.15;;;11.00;99.90;;;;;;5116901;28;20035;-61
2023/04/07 06:48:03;;;;;;;15.45;7.50;;;11.20;99.90;;;;;;5116959;28;20088;-61
2023/04/07 06:50:29;;;;;;;10.93;6.90;;;11.20;99.90;;;;;;5117351;28;20126;-61
2023/04/07 06:52:55;;;;;;;9.07;6.00;;;11.20;99.90;;;;;;5117406;28;20035;-61
2023/04/07 06:55:20;;;;;;;12.70;7.85;;;11.20;99.90;;;;;;5117741;28;20081;-61
2023/04/07 06:57:46;;;;;;;11.38;7.70;;;11.20;99.90;;;;;;5116784;28;20028;-61
2023/04/07 07:00:12;;;;;;;14.35;9.82;;;11.10;99.90;;;;;;5116797;28;20027;-62
2023/04/07 07:02:38;;;;;;;13.88;10.15;;;11.00;99.90;;;;;;5099680;28;20108;-61
2023/04/07 07:05:04;;;;;;;18.33;10.02;;;11.10;99.90;;;;;;5117427;28;20062;-61
2023/04/07 07:07:30;;;;;;;11.95;7.88;;;11.20;99.90;;;;;;5117529;28;20412;-62
2023/04/07 07:09:56;;;;;;;12.27;9.43;;;11.30;99.60;;;;;;5117252;28;20047;-61
2023/04/07 07:12:22;;;;;;;12.35;8.25;;;11.50;98.20;;;;;;5117076;28;20057;-63
2023/04/07 07:14:48;;;;;;;10.77;9.05;;;11.70;95.50;;;;;;5116613;28;20088;-62
2023/04/07 07:17:13;;;;;;;15.30;9.57;;;11.70;95.80;;;;;;5117000;28;20024;-61
2023/04/07 07:19:39;;;;;;;9.50;7.00;;;11.90;96.10;;;;;;5117210;28;20032;-62
2023/04/07 07:22:05;;;;;;;11.73;6.05;;;11.70;95.40;;;;;;5117196;28;20039;-62
2023/04/07 07:24:32;;;;;;;9.60;5.13;;;11.40;98.90;;;;;;5099481;28;20039;-61
2023/04/07 07:27:00;;;;;;;10.10;4.30;;;11.30;99.90;;;;;;5116748;28;20035;-63
2023/04/07 07:29:26;;;;;;;6.82;3.90;;;11.20;99.90;;;;;;5117112;28;20035;-62
2023/04/07 07:31:52;;;;;;;7.53;4.00;;;11.20;99.30;;;;;;5117676;28;20384;-61
2023/04/07 07:34:18;;;;;;;4.95;3.67;;;11.20;99.90;;;;;;5117181;28;20092;-61
2023/04/07 07:36:44;;;;;;;5.95;3.63;;;11.20;99.30;;;;;;5117034;28;20031;-61
2023/04/07 07:39:10;;;;;;;7.88;3.45;;;11.30;99.00;;;;;;5116286;28;20032;-61
2023/04/07 07:41:35;;;;;;;6.15;3.25;;;11.30;98.50;;;;;;5116729;28;20066;-63
2023/04/07 07:44:01;;;;;;;10.70;3.67;;;11.30;99.90;;;;;;5117134;28;20031;-61
2023/04/07 07:46:27;;;;;;;6.70;3.35;;;11.40;98.80;;;;;;5116808;28;20124;-61
2023/04/07 07:48:53;;;;;;;3.92;2.90;;;11.50;97.70;;;;;;5117941;28;20065;-60
2023/04/07 07:51:19;;;;;;;4.90;2.90;;;11.60;97.20;;;;;;5120813;28;20024;-60
2023/04/07 07:53:45;;;;;;;3.45;2.75;;;11.50;96.00;;;;;;5120805;28;20050;-62
2023/04/07 07:56:10;;;;;;;5.72;2.78;;;11.50;95.90;;;;;;5120166;28;20293;-62
2023/04/07 07:58:37;;;;;;;9.50;3.17;;;11.50;93.60;;;;;;5120664;28;20424;-62
2023/04/07 08:01:03;;;;;;;4.03;2.55;;;11.40;94.50;;;;;;5120077;28;20035;-61
2023/04/07 08:03:29;;;;;;;5.80;2.70;;;11.50;93.60;;;;;;5119965;28;20148;-61
2023/04/07 08:05:55;;;;;;;6.63;3.10;;;11.50;94.20;;;;;;5120636;28;20031;-62
2023/04/07 08:08:21;;;;;;;5.68;2.90;;;11.60;94.10;;;;;;5120727;28;20096;-62
2023/04/07 08:10:47;;;;;;;6.72;2.65;;;11.70;94.50;;;;;;5120505;28;20035;-62
2023/04/07 08:13:13;;;;;;;9.02;2.60;;;12.00;91.10;;;;;;5103132;28;20465;-61
2023/04/07 08:15:39;;;;;;;5.88;2.58;;;12.20;83.80;;;;;;5120424;28;20027;-62
2023/04/07 08:18:06;;;;;;;4.65;2.28;;;12.20;83.10;;;;;;5120678;28;20101;-61
2023/04/07 08:20:32;;;;;;;4.68;1.95;;;12.10;84.40;;;;;;5120465;28;20356;-62
2023/04/07 08:23:00;;;;;;;4.18;2.28;;;12.00;88.40;;;;;;5120468;28;20137;-61
2023/04/07 08:25:27;;;;;;;3.33;2.05;;;12.00;89.40;;;;;;5120223;28;20106;-63
2023/04/07 08:27:53;;;;;;;7.32;2.42;;;11.80;91.00;;;;;;5119710;28;20104;-63
2023/04/07 08:30:20;;;;;;;4.88;2.00;;;11.90;87.40;;;;;;5119320;28;20035;-61
2023/04/07 08:32:46;;;;;;;6.85;2.45;;;12.00;84.40;;;;;;5120112;28;20027;-63
2023/04/07 08:35:11;;;;;;;7.18;2.33;;;12.20;81.40;;;;;;5120359;28;20288;-62
2023/04/07 08:37:38;;;;;;;4.95;2.10;;;12.00;83.50;;;;;;5120070;28;20285;-61
2023/04/07 08:40:05;;;;;;;9.07;2.28;;;12.30;86.10;;;;;;5119929;28;20035;-60
2023/04/07 08:42:32;;;;;;;6.10;2.47;;;12.70;73.00;;;;;;5119011;28;20424;-60
2023/04/07 08:45:06;;;;;;;7.25;2.55;;;13.00;66.90;;;;;;5119844;28;20411;-60
2023/04/07 08:47:33;;;;;;;6.25;2.58;;;13.30;56.80;;;;;;5119105;28;20132;-60
2023/04/07 08:50:02;;;;;;;5.93;2.30;;;13.50;55.30;;;;;;5119808;28;20034;-61
2023/04/07 08:52:35;;;;;;;5.70;2.08;;;13.70;54.60;;;;;;5119700;28;20016;-61
2023/04/07 08:55:02;;;;;;;4.55;2.20;;;13.90;44.00;;;;;;5120081;28;20079;-60
2023/04/07 08:57:31;;;;;;;5.22;2.00;;;13.90;37.40;;;;;;5120345;28;20411;-60
2023/04/07 09:00:03;;;;;;;8.07;2.10;;;13.70;38.10;;;;;;5118695;28;20093;-60
2023/04/07 09:02:29;;;;;;;5.45;2.08;;;13.70;44.70;;;;;;5118758;28;20396;-61
2023/04/07 09:04:56;;;;;;;6.97;2.30;;;13.90;41.10;;;;;;5119474;28;20032;-61
2023/04/07 09:07:21;;;;;;;8.18;2.28;;;13.90;39.50;;;;;;5119467;28;20097;-61
2023/04/07 09:09:47;;;;;;;10.23;2.35;;;14.00;37.90;;;;;;5118953;28;20402;-62
2023/04/07 09:12:13;;;;;;;6.18;2.05;;;13.90;40.80;;;;;;5119324;28;20120;-60
2023/04/07 09:14:39;;;;;;;10.38;2.10;;;13.90;42.40;;;;;;5119300;28;20031;-62
2023/04/07 09:17:05;;;;;;;7.03;2.00;;;13.80;38.40;;;;;;5119290;28;20035;-61
2023/04/07 09:19:32;;;;;;;8.95;2.03;;;13.70;33.20;;;;;;5118502;28;20028;-61
2023/04/07 09:21:58;;;;;;;10.57;2.38;;;13.70;36.90;;;;;;5119191;28;20034;-60
2023/04/07 09:24:26;;;;;;;7.53;2.40;;;13.70;43.00;;;;;;5119114;28;20032;-60
2023/04/07 09:27:14;;;;;;;8.73;2.60;;;13.60;44.20;;;;;;5118570;28;20407;-60
2023/04/07 09:29:42;;;;;;;10.07;3.03;;;13.40;48.00;;;;;;5120038;28;20272;-61
2023/04/07 09:32:08;;;;;;;7.57;2.47;;;13.10;58.30;;;;;;5119217;28;20057;-60
2023/04/07 09:34:37;;;;;;;9.43;2.50;;;13.00;59.50;;;;;;5118996;28;20066;-61
2023/04/07 09:37:05;;;;;;;9.57;2.78;;;12.90;59.70;;;;;;5118951;28;20070;-61
2023/04/07 09:39:31;;;;;;;9.32;2.13;;;12.90;64.50;;;;;;5118172;28;20300;-61
2023/04/07 09:41:58;;;;;;;11.63;2.50;;;13.00;56.30;;;;;;5117874;28;20096;-63
2023/04/07 09:44:25;;;;;;;8.38;2.40;;;13.00;56.30;;;;;;5118741;28;20032;-63
2023/04/07 09:46:58;;;;;;;6.70;2.28;;;12.70;61.90;;;;;;5117936;28;20100;-62
2023/04/07 09:49:25;;;;;;;12.55;2.40;;;12.90;61.10;;;;;;5101036;28;20449;-61
2023/04/07 09:52:06;;;;;;;7.00;2.10;;;13.00;62.40;;;;;;5118631;28;20023;-62
2023/04/07 09:54:37;;;;;;;13.55;2.72;;;13.20;52.40;;;;;;5118632;28;20029;-61
2023/04/07 09:57:04;;;;;;;9.82;2.55;;;13.30;42.20;;;;;;5118564;28;20354;-61
2023/04/07 09:59:31;;;;;;;7.50;1.92;;;13.30;41.00;;;;;;5117794;28;20043;-62
2023/04/07 10:01:58;;;;;;;10.65;2.88;;;13.40;39.80;;;;;;5117791;28;20039;-62
2023/04/07 10:04:25;;;;;;;11.30;2.70;;;13.30;38.50;;;;;;5117650;28;20034;-61
2023/04/07 10:06:53;;;;;;;6.20;2.58;;;13.40;41.00;;;;;;5118249;28;20023;-61
2023/04/07 10:09:21;;;;;;;11.07;2.72;;;13.70;37.60;;;;;;5118750;27;20036;-59
2023/04/07 10:11:49;;;;;;;12.38;2.70;;;13.90;34.50;;;;;;5117032;28;20400;-60
2023/04/07 10:14:16;;;;;;;8.45;3.20;;;14.10;19.70;;;;;;5118045;28;20031;-62
2023/04/07 10:16:43;;;;;;;10.40;3.08;;;13.90;24.30;;;;;;5118080;28;20377;-61
2023/04/07 10:19:09;;;;;;;11.98;3.15;;;13.80;36.30;;;;;;5118064;28;20051;-62
2023/04/07 10:21:39;;;;;;;10.15;2.90;;;13.90;37.60;;;;;;5117969;28;20039;-61
2023/04/07 10:24:34;;;;;;;4.65;1.80;;;14.00;29.30;;;;;;5117919;28;20035;-62
2023/04/07 10:27:10;;;;;;;8.35;2.03;;;14.10;31.30;;;;;;5106956;28;20036;-61
2023/04/07 10:29:41;;;;;;;5.57;2.30;;;14.10;27.00;;;;;;5118369;28;20028;-61
2023/04/07 10:32:07;;;;;;;8.13;2.10;;;14.00;29.00;;;;;;5117166;28;20027;-61
2023/04/07 10:34:54;;;;;;;5.78;2.03;;;13.90;31.10;;;;;;5117059;28;20077;-62
2023/04/07 10:37:21;;;;;;;4.93;1.52;;;14.30;29.50;;;;;;5117852;28;20027;-62
2023/04/07 10:39:49;;;;;;;4.78;1.40;;;14.70;18.50;;;;;;5118426;28;20041;-61
2023/04/07 10:42:40;;;;;;;4.13;1.30;;;15.00;7.80;;;;;;5116742;28;20047;-61
2023/04/07 10:45:08;;;;;;;7.13;1.77;;;15.50;1.00;;;;;;5118151;28;20020;-62
2023/04/07 10:47:38;;;;;;;5.65;1.35;;;15.50;1.00;;;;;;5117658;28;20037;-62
2023/04/07 10:50:23;;;;;;;7.22;1.80;;;15.40;1.00;;;;;;5117543;28;20062;-61
2023/04/07 10:53:04;;;;;;;10.05;2.13;;;15.10;1.00;;;;;;5117518;28;20072;-63
2023/04/07 10:55:33;;;;;;;5.65;1.77;;;14.70;1.00;;;;;;5116640;28;20031;-62
2023/04/07 10:58:31;;;;;;;7.20;1.63;;;14.30;1.00;;;;;;5116614;28;20112;-62
2023/04/07 11:01:02;;;;;;;13.32;2.33;;;14.10;7.10;;;;;;5117557;28;20300;-62
2023/04/07 11:03:33;;;;;;;9.53;2.50;;;14.10;7.90;;;;;;5117282;28;20300;-61
2023/04/07 11:06:12;;;;;;;5.47;2.20;;;14.20;5.50;;;;;;5117528;28;20042;-62
2023/04/07 11:08:43;;;;;;;8.55;2.22;;;14.30;1.00;;;;;;5117426;28;20028;-60
2023/04/07 11:11:12;;;;;;;10.73;2.40;;;14.20;1.00;;;;;;5116300;28;20388;-57
2023/04/07 11:13:48;;;;;;;9.57;2.78;;;13.90;1.00;;;;;;5117269;28;20024;-64
2023/04/07 11:16:16;;;;;;;7.10;1.80;;;13.80;1.00;;;;;;5117209;28;20152;-63
2023/04/07 11:18:42;;;;;;;9.65;2.10;;;13.80;1.00;;;;;;5116360;28;20304;-63
2023/04/07 11:21:08;;;;;;;9.00;2.30;;;13.80;1.00;;;;;;5117226;28;20122;-64
2023/04/07 11:23:44;;;;;;;8.65;2.70;;;13.80;1.00;;;;;;5117763;28;20190;-63
2023/04/07 11:26:12;;;;;;;5.43;2.13;;;13.70;1.00;;;;;;5121255;27;20035;-65
2023/04/07 11:28:54;;;;;;;7.28;2.58;;;13.80;1.00;;;;;;5120943;28;20042;-64
2023/04/07 11:31:24;;;;;;;8.32;2.10;;;14.30;1.00;;;;;;5120713;28;20111;-63
2023/04/07 11:33:58;;;;;;;9.25;2.03;;;14.80;1.00;;;;;;5121301;28;20285;-63
2023/04/07 11:36:58;;;;;;;5.88;2.13;;;15.00;1.00;;;;;;5120685;28;20019;-63
2023/04/07 11:39:30;;;;;;;7.93;2.38;;;15.10;1.00;;;;;;5119340;28;20042;-63
2023/04/07 11:41:56;;;;;;;9.00;1.83;;;15.90;1.00;;;;;;5121002;28;20054;-65
2023/04/07 11:44:24;;;;;;;5.35;1.80;;;16.70;1.00;;;;;;5103262;28;20309;-63
2023/04/07 11:46:59;;;;;;;6.43;2.00;;;16.90;1.00;;;;;;5120373;28;20038;-64
2023/04/07 11:49:30;;;;;;;8.02;2.00;;;16.60;1.00;;;;;;5120175;28;20092;-63
2023/04/07 11:52:01;;;;;;;6.93;2.10;;;16.70;1.00;;;;;;5120186;28;20095;-63
2023/04/07 11:54:50;;;;;;;5.15;1.90;;;17.00;1.00;;;;;;5120240;28;20077;-64
2023/04/07 11:57:27;;;;;;;6.80;1.55;;;18.20;1.00;;;;;;5120874;28;20043;-64
2023/04/07 12:00:12;;;;;;;5.03;1.23;;;18.60;99.90;;;;;;5120163;28;20053;-63
2023/04/07 12:02:38;;;;;;;3.80;1.50;;;18.70;99.90;;;;;;5120916;28;20411;-64
2023/04/07 12:05:04;;;;;;;2.35;0.75;;;19.40;14.10;;;;;;5119961;28;20027;-65
2023/04/07 12:07:30;;;;;;;4.10;0.85;;;19.80;1.00;;;;;;5102824;28;20093;-65
2023/04/07 12:09:56;;;;;;;7.85;1.30;;;20.20;99.90;;;;;;5119914;28;20346;-64
2023/04/07 12:12:29;;;;;;;2.35;0.90;;;21.20;1.00;;;;;;5120595;28;20059;-64
2023/04/07 12:14:55;;;;;;;4.35;1.00;;;21.70;35.00;;;;;;5120810;28;20031;-67
2023/04/07 12:17:22;;;;;;;3.10;0.88;;;21.30;25.00;;;;;;5119773;28;20043;-64
2023/04/07 12:19:48;;;;;;;3.83;1.17;;;20.30;99.90;;;;;;5102681;28;20028;-64
2023/04/07 12:22:15;;;;;;;4.05;1.20;;;19.30;99.90;;;;;;5120374;28;20160;-65
2023/04/07 12:24:41;;;;;;;4.07;0.90;;;18.80;82.20;;;;;;5102651;28;20035;-65
2023/04/07 12:27:07;;;;;;;4.75;1.10;;;18.10;99.90;;;;;;5102508;28;20094;-66
2023/04/07 12:29:33;;;;;;;3.63;0.80;;;17.30;1.00;;;;;;5119603;28;20024;-64
2023/04/07 12:31:59;;;;;;;7.75;1.20;;;16.60;1.00;;;;;;5102477;28;20027;-64
2023/04/07 12:34:26;;;;;;;5.20;1.27;;;16.40;1.00;;;;;;5102045;28;20036;-64
2023/04/07 12:36:52;;;;;;;5.43;1.10;;;16.30;1.00;;;;;;5119356;28;20342;-64
2023/04/07 12:39:18;;;;;;;5.85;1.10;;;15.80;1.00;;;;;;5102343;28;20028;-65
2023/04/07 12:41:46;;;;;;;4.82;1.30;;;15.50;1.00;;;;;;5119144;28;20060;-64
2023/04/07 12:44:12;;;;;;;6.15;0.93;;;15.00;1.00;;;;;;5119316;28;20081;-65
2023/04/07 12:46:38;;;;;;;7.20;1.38;;;14.60;1.00;;;;;;5119937;28;20040;-64
2023/04/07 12:49:04;;;;;;;4.85;1.25;;;14.20;1.00;;;;;;5119898;28;20299;-66